sensor_id;sensor_type;location;lat;lon;timestamp;temperature;humidity
17170;DHT22;8700;48.222;16.342;2023-04-15T00:02:49;5.00;99.90
17170;DHT22;8700;48.222;16.342;2023-04-15T00:06:13;5.10;99.90
17170;DHT22;8700;48.222;16.342;2023-04-15T00:09:34;5.10;99.90
17170;DHT22;8700;48.222;16.342;2023-04-15T00:12:56;5.00;99.90
17170;DHT22;8700;48.222;16.342;2023-04-15T00:16:17;5.10;99.90
17170;DHT22;8700;48.222;16.342;2023-04-15T00:19:38;5.10;99.90
17170;DHT22;8700;48.222;16.342;2023-04-15T00:23:01;5.10;99.90
17170;DHT22;8700;48.222;16.342;2023-04-15T00:26:22;5.10;99.90
17170;DHT22;8700;48.222;16.342;2023-04-15T00:29:44;5.00;99.90
17170;DHT22;8700;48.222;16.342;2023-04-15T00:33:05;4.90;99.90
17170;DHT22;8700;48.222;16.342;2023-04-15T00:36:26;5.00;99.90
17170;DHT22;8700;48.222;16.342;2023-04-15T00:39:49;5.00;99.90
17170;DHT22;8700;48.222;16.342;2023-04-15T00:43:10;5.00;99.90
17170;DHT22;8700;48.222;16.342;2023-04-15T00:46:35;5.00;99.90
17170;DHT22;8700;48.222;16.342;2023-04-15T00:49:56;5.10;99.90
17170;DHT22;8700;48.222;16.342;2023-04-15T00:53:19;4.90;99.90
17170;DHT22;8700;48.222;16.342;2023-04-15T00:56:41;5.00;99.90
17170;DHT22;8700;48.222;16.342;2023-04-15T01:00:03;5.00;99.90
17170;DHT22;8700;48.222;16.342;2023-04-15T01:03:27;5.00;99.90
17170;DHT22;8700;48.222;16.342;2023-04-15T01:06:50;5.00;99.90
17170;DHT22;8700;48.222;16.342;2023-04-15T01:10:11;4.90;99.90
17170;DHT22;8700;48.222;16.342;2023-04-15T01:13:34;5.00;99.90
17170;DHT22;8700;48.222;16.342;2023-04-15T01:16:55;5.00;99.90
17170;DHT22;8700;48.222;16.342;2023-04-15T01:20:17;5.00;99.90
17170;DHT22;8700;48.222;16.342;2023-04-15T01:23:38;5.00;99.90
17170;DHT22;8700;48.222;16.342;2023-04-15T01:27:01;5.20;99.90
17170;DHT22;8700;48.222;16.342;2023-04-15T01:30:22;5.20;99.90
17170;DHT22;8700;48.222;16.342;2023-04-15T01:33:44;5.20;99.90
17170;DHT22;8700;48.222;16.342;2023-04-15T01:37:06;5.20;99.90
17170;DHT22;8700;48.222;16.342;2023-04-15T01:40:27;5.20;99.90
17170;DHT22;8700;48.222;16.342;2023-04-15T01:43:50;5.20;99.90
17170;DHT22;8700;48.222;16.342;2023-04-15T01:47:11;5.20;99.90
17170;DHT22;8700;48.222;16.342;2023-04-15T01:50:32;5.30;99.90
17170;DHT22;8700;48.222;16.342;2023-04-15T01:53:55;5.30;99.90
17170;DHT22;8700;48.222;16.342;2023-04-15T01:57:16;5.40;99.90
17170;DHT22;8700;48.222;16.342;2023-04-15T02:00:39;5.40;99.90
17170;DHT22;8700;48.222;16.342;2023-04-15T02:04:01;5.40;99.90
17170;DHT22;8700;48.222;16.342;2023-04-15T02:07:22;5.50;99.90
17170;DHT22;8700;48.222;16.342;2023-04-15T02:10:44;5.50;99.90
17170;DHT22;8700;48.222;16.342;2023-04-15T02:14:05;5.50;99.90
17170;DHT22;8700;48.222;16.342;2023-04-15T02:17:27;5.60;99.90
17170;DHT22;8700;48.222;16.342;2023-04-15T02:20:50;5.60;99.90
17170;DHT22;8700;48.222;16.342;2023-04-15T02:24:12;5.60;99.90
17170;DHT22;8700;48.222;16.342;2023-04-15T02:27:33;5.50;99.90
17170;DHT22;8700;48.222;16.342;2023-04-15T02:30:55;5.50;99.90
17170;DHT22;8700;48.222;16.342;2023-04-15T02:34:19;5.60;99.90
17170;DHT22;8700;48.222;16.342;2023-04-15T02:37:40;5.60;99.90
17170;DHT22;8700;48.222;16.342;2023-04-15T02:41:04;5.70;99.90
17170;DHT22;8700;48.222;16.342;2023-04-15T02:44:28;5.70;99.90
17170;DHT22;8700;48.222;16.342;2023-04-15T02:47:50;5.70;99.90
17170;DHT22;8700;48.222;16.342;2023-04-15T02:51:14;5.70;99.90
17170;DHT22;8700;48.222;16.342;2023-04-15T02:54:35;5.60;99.90
17170;DHT22;8700;48.222;16.342;2023-04-15T02:57:56;5.60;99.90
17170;DHT22;8700;48.222;16.342;2023-04-15T03:01:19;5.70;99.90
17170;DHT22;8700;48.222;16.342;2023-04-15T03:04:40;5.80;99.90
17170;DHT22;8700;48.222;16.342;2023-04-15T03:08:03;5.80;99.90
17170;DHT22;8700;48.222;16.342;2023-04-15T03:11:24;5.80;99.90
17170;DHT22;8700;48.222;16.342;2023-04-15T03:14:46;5.70;99.90
17170;DHT22;8700;48.222;16.342;2023-04-15T03:18:07;5.70;99.90
17170;DHT22;8700;48.222;16.342;2023-04-15T03:21:28;5.70;99.90
17170;DHT22;8700;48.222;16.342;2023-04-15T03:24:50;5.80;99.90
17170;DHT22;8700;48.222;16.342;2023-04-15T03:28:12;5.90;99.90
17170;DHT22;8700;48.222;16.342;2023-04-15T03:31:33;5.70;99.90
17170;DHT22;8700;48.222;16.342;2023-04-15T03:34:54;5.70;99.90
17170;DHT22;8700;48.222;16.342;2023-04-15T03:38:15;5.70;99.90
17170;DHT22;8700;48.222;16.342;2023-04-15T03:41:38;5.80;99.90
17170;DHT22;8700;48.222;16.342;2023-04-15T03:44:59;5.90;99.90
17170;DHT22;8700;48.222;16.342;2023-04-15T03:48:20;5.90;99.90
17170;DHT22;8700;48.222;16.342;2023-04-15T03:51:41;5.90;99.90
17170;DHT22;8700;48.222;16.342;2023-04-15T03:55:03;6.00;99.90
17170;DHT22;8700;48.222;16.342;2023-04-15T03:58:26;6.00;99.90
17170;DHT22;8700;48.222;16.342;2023-04-15T04:01:47;6.00;99.90
17170;DHT22;8700;48.222;16.342;2023-04-15T04:05:08;5.90;99.90
17170;DHT22;8700;48.222;16.342;2023-04-15T04:08:30;5.90;99.90
17170;DHT22;8700;48.222;16.342;2023-04-15T04:11:51;6.00;99.90
17170;DHT22;8700;48.222;16.342;2023-04-15T04:15:13;6.20;99.90
17170;DHT22;8700;48.222;16.342;2023-04-15T04:18:35;6.30;99.90
17170;DHT22;8700;48.222;16.342;2023-04-15T04:21:56;6.50;99.90
17170;DHT22;8700;48.222;16.342;2023-04-15T04:25:17;6.60;99.90
17170;DHT22;8700;48.222;16.342;2023-04-15T04:28:40;6.80;99.90
17170;DHT22;8700;48.222;16.342;2023-04-15T04:32:03;6.80;99.90
17170;DHT22;8700;48.222;16.342;2023-04-15T04:35:24;6.80;99.90
17170;DHT22;8700;48.222;16.342;2023-04-15T04:38:46;6.70;99.90
17170;DHT22;8700;48.222;16.342;2023-04-15T04:42:07;6.60;99.90
17170;DHT22;8700;48.222;16.342;2023-04-15T04:45:29;6.70;99.90
17170;DHT22;8700;48.222;16.342;2023-04-15T04:48:51;6.80;99.90
17170;DHT22;8700;48.222;16.342;2023-04-15T04:52:13;6.80;99.90
17170;DHT22;8700;48.222;16.342;2023-04-15T04:55:34;6.70;99.90
17170;DHT22;8700;48.222;16.342;2023-04-15T04:58:56;6.60;99.90
17170;DHT22;8700;48.222;16.342;2023-04-15T05:02:17;6.70;99.90
17170;DHT22;8700;48.222;16.342;2023-04-15T05:05:40;6.80;99.90
17170;DHT22;8700;48.222;16.342;2023-04-15T05:09:01;6.90;99.90
17170;DHT22;8700;48.222;16.342;2023-04-15T05:12:23;7.00;99.90
17170;DHT22;8700;48.222;16.342;2023-04-15T05:15:46;7.00;99.90
17170;DHT22;8700;48.222;16.342;2023-04-15T05:19:08;7.00;99.90
17170;DHT22;8700;48.222;16.342;2023-04-15T05:22:30;7.00;99.90
17170;DHT22;8700;48.222;16.342;2023-04-15T05:25:52;7.10;99.90
17170;DHT22;8700;48.222;16.342;2023-04-15T05:29:13;7.10;99.90
17170;DHT22;8700;48.222;16.342;2023-04-15T05:32:35;7.20;99.90
17170;DHT22;8700;48.222;16.342;2023-04-15T05:35:56;7.20;99.90
17170;DHT22;8700;48.222;16.342;2023-04-15T05:39:19;7.20;99.90
17170;DHT22;8700;48.222;16.342;2023-04-15T05:42:40;7.30;99.90
17170;DHT22;8700;48.222;16.342;2023-04-15T05:46:02;7.40;99.90
17170;DHT22;8700;48.222;16.342;2023-04-15T05:49:23;7.60;99.90
17170;DHT22;8700;48.222;16.342;2023-04-15T05:52:44;7.70;99.90
17170;DHT22;8700;48.222;16.342;2023-04-15T05:56:07;7.80;99.90
17170;DHT22;8700;48.222;16.342;2023-04-15T05:59:28;8.00;99.90
17170;DHT22;8700;48.222;16.342;2023-04-15T06:02:50;8.10;99.90
17170;DHT22;8700;48.222;16.342;2023-04-15T06:06:12;8.10;99.90
17170;DHT22;8700;48.222;16.342;2023-04-15T06:09:34;8.30;99.90
17170;DHT22;8700;48.222;16.342;2023-04-15T06:12:57;8.50;99.90
17170;DHT22;8700;48.222;16.342;2023-04-15T06:16:19;8.50;99.90
17170;DHT22;8700;48.222;16.342;2023-04-15T06:19:41;8.60;99.90
17170;DHT22;8700;48.222;16.342;2023-04-15T06:23:02;8.60;99.90
17170;DHT22;8700;48.222;16.342;2023-04-15T06:26:23;8.50;99.90
17170;DHT22;8700;48.222;16.342;2023-04-15T06:29:46;8.20;99.90
17170;DHT22;8700;48.222;16.342;2023-04-15T06:33:08;8.30;99.90
17170;DHT22;8700;48.222;16.342;2023-04-15T06:36:29;8.30;99.90
17170;DHT22;8700;48.222;16.342;2023-04-15T06:39:51;8.30;99.90
17170;DHT22;8700;48.222;16.342;2023-04-15T06:43:12;8.40;99.90
17170;DHT22;8700;48.222;16.342;2023-04-15T06:46:35;8.10;99.90
17170;DHT22;8700;48.222;16.342;2023-04-15T06:49:56;8.40;99.90
17170;DHT22;8700;48.222;16.342;2023-04-15T06:53:18;8.30;99.90
17170;DHT22;8700;48.222;16.342;2023-04-15T06:56:40;8.50;99.90
17170;DHT22;8700;48.222;16.342;2023-04-15T07:00:02;8.70;99.90
17170;DHT22;8700;48.222;16.342;2023-04-15T07:03:26;8.60;99.90
17170;DHT22;8700;48.222;16.342;2023-04-15T07:06:47;8.50;99.90
17170;DHT22;8700;48.222;16.342;2023-04-15T07:10:09;8.40;99.90
17170;DHT22;8700;48.222;16.342;2023-04-15T07:13:31;8.60;99.90
17170;DHT22;8700;48.222;16.342;2023-04-15T07:16:53;8.90;99.90
17170;DHT22;8700;48.222;16.342;2023-04-15T07:20:16;9.10;99.90
17170;DHT22;8700;48.222;16.342;2023-04-15T07:23:38;9.20;99.90
17170;DHT22;8700;48.222;16.342;2023-04-15T07:26:59;9.10;99.90
17170;DHT22;8700;48.222;16.342;2023-04-15T07:30:20;8.90;99.90
17170;DHT22;8700;48.222;16.342;2023-04-15T07:33:42;8.90;99.90
17170;DHT22;8700;48.222;16.342;2023-04-15T07:37:08;9.00;99.90
17170;DHT22;8700;48.222;16.342;2023-04-15T07:40:30;8.90;99.90
17170;DHT22;8700;48.222;16.342;2023-04-15T07:43:51;9.10;99.90
17170;DHT22;8700;48.222;16.342;2023-04-15T07:47:13;9.00;99.90
17170;DHT22;8700;48.222;16.342;2023-04-15T07:50:36;9.10;99.90
17170;DHT22;8700;48.222;16.342;2023-04-15T07:53:59;9.10;99.90
17170;DHT22;8700;48.222;16.342;2023-04-15T07:57:20;9.10;99.90
17170;DHT22;8700;48.222;16.342;2023-04-15T08:00:41;8.90;99.90
17170;DHT22;8700;48.222;16.342;2023-04-15T08:04:03;8.90;99.90
17170;DHT22;8700;48.222;16.342;2023-04-15T08:07:25;9.00;99.90
17170;DHT22;8700;48.222;16.342;2023-04-15T08:10:48;9.00;99.90
17170;DHT22;8700;48.222;16.342;2023-04-15T08:14:10;9.00;99.90
17170;DHT22;8700;48.222;16.342;2023-04-15T08:17:31;9.10;99.90
17170;DHT22;8700;48.222;16.342;2023-04-15T08:20:53;9.50;99.90
17170;DHT22;8700;48.222;16.342;2023-04-15T08:24:14;9.80;99.90
17170;DHT22;8700;48.222;16.342;2023-04-15T08:27:37;10.20;99.90
17170;DHT22;8700;48.222;16.342;2023-04-15T08:30:58;10.50;99.90
17170;DHT22;8700;48.222;16.342;2023-04-15T08:34:20;9.80;99.90
17170;DHT22;8700;48.222;16.342;2023-04-15T08:37:41;9.80;99.90
17170;DHT22;8700;48.222;16.342;2023-04-15T08:41:08;9.90;99.90
17170;DHT22;8700;48.222;16.342;2023-04-15T08:44:34;9.60;99.90
17170;DHT22;8700;48.222;16.342;2023-04-15T08:47:57;9.30;99.90
17170;DHT22;8700;48.222;16.342;2023-04-15T08:51:19;9.70;99.90
17170;DHT22;8700;48.222;16.342;2023-04-15T08:54:41;10.00;99.90
17170;DHT22;8700;48.222;16.342;2023-04-15T08:58:05;10.00;99.90
17170;DHT22;8700;48.222;16.342;2023-04-15T09:01:28;9.90;99.90
17170;DHT22;8700;48.222;16.342;2023-04-15T09:04:49;9.80;99.90
17170;DHT22;8700;48.222;16.342;2023-04-15T09:08:10;9.60;99.90
17170;DHT22;8700;48.222;16.342;2023-04-15T09:11:32;9.50;99.90
17170;DHT22;8700;48.222;16.342;2023-04-15T09:14:53;9.40;99.90
17170;DHT22;8700;48.222;16.342;2023-04-15T09:18:26;9.50;99.90
17170;DHT22;8700;48.222;16.342;2023-04-15T09:21:48;9.30;99.90
17170;DHT22;8700;48.222;16.342;2023-04-15T09:25:27;9.20;99.90
17170;DHT22;8700;48.222;16.342;2023-04-15T09:28:49;9.10;99.90
17170;DHT22;8700;48.222;16.342;2023-04-15T09:32:11;9.00;99.90
17170;DHT22;8700;48.222;16.342;2023-04-15T09:35:35;9.30;99.90
17170;DHT22;8700;48.222;16.342;2023-04-15T09:38:57;10.10;99.90
17170;DHT22;8700;48.222;16.342;2023-04-15T09:42:19;10.90;99.90
17170;DHT22;8700;48.222;16.342;2023-04-15T09:45:47;11.50;99.90
17170;DHT22;8700;48.222;16.342;2023-04-15T09:49:10;11.50;99.90
17170;DHT22;8700;48.222;16.342;2023-04-15T09:52:33;10.80;99.90
17170;DHT22;8700;48.222;16.342;2023-04-15T09:56:02;10.40;99.90
17170;DHT22;8700;48.222;16.342;2023-04-15T09:59:26;10.20;99.90
17170;DHT22;8700;48.222;16.342;2023-04-15T10:02:48;10.10;99.90
17170;DHT22;8700;48.222;16.342;2023-04-15T10:06:12;10.10;99.90
17170;DHT22;8700;48.222;16.342;2023-04-15T10:09:37;10.10;99.90
17170;DHT22;8700;48.222;16.342;2023-04-15T10:12:59;10.00;99.90
17170;DHT22;8700;48.222;16.342;2023-04-15T10:16:22;9.60;99.90
17170;DHT22;8700;48.222;16.342;2023-04-15T10:19:44;9.80;99.90
17170;DHT22;8700;48.222;16.342;2023-04-15T10:23:06;9.90;99.90
17170;DHT22;8700;48.222;16.342;2023-04-15T10:26:29;10.20;99.90
17170;DHT22;8700;48.222;16.342;2023-04-15T10:29:51;10.30;99.90
17170;DHT22;8700;48.222;16.342;2023-04-15T10:33:13;10.30;99.90
17170;DHT22;8700;48.222;16.342;2023-04-15T10:36:36;10.60;99.90
17170;DHT22;8700;48.222;16.342;2023-04-15T10:39:57;10.50;99.90
17170;DHT22;8700;48.222;16.342;2023-04-15T10:43:25;10.20;99.90
17170;DHT22;8700;48.222;16.342;2023-04-15T10:46:46;10.00;99.90
17170;DHT22;8700;48.222;16.342;2023-04-15T10:50:08;9.80;99.90
17170;DHT22;8700;48.222;16.342;2023-04-15T10:53:30;9.80;99.90
17170;DHT22;8700;48.222;16.342;2023-04-15T10:57:05;9.90;99.90
17170;DHT22;8700;48.222;16.342;2023-04-15T11:00:30;10.00;99.90
17170;DHT22;8700;48.222;16.342;2023-04-15T11:03:54;10.00;99.90
17170;DHT22;8700;48.222;16.342;2023-04-15T11:07:30;10.30;99.90
17170;DHT22;8700;48.222;16.342;2023-04-15T11:10:53;10.40;99.90
17170;DHT22;8700;48.222;16.342;2023-04-15T11:14:17;10.30;99.90
17170;DHT22;8700;48.222;16.342;2023-04-15T11:17:40;10.50;99.90
17170;DHT22;8700;48.222;16.342;2023-04-15T11:21:05;10.30;99.90
17170;DHT22;8700;48.222;16.342;2023-04-15T11:24:27;10.80;99.90
17170;DHT22;8700;48.222;16.342;2023-04-15T11:27:48;11.10;99.90
17170;DHT22;8700;48.222;16.342;2023-04-15T11:31:11;10.90;99.90
17170;DHT22;8700;48.222;16.342;2023-04-15T11:34:33;10.90;99.90
17170;DHT22;8700;48.222;16.342;2023-04-15T11:37:55;10.90;99.90
17170;DHT22;8700;48.222;16.342;2023-04-15T11:41:19;10.90;99.90
17170;DHT22;8700;48.222;16.342;2023-04-15T11:44:41;11.10;99.90
17170;DHT22;8700;48.222;16.342;2023-04-15T11:48:06;10.90;99.90
17170;DHT22;8700;48.222;16.342;2023-04-15T11:51:33;11.00;99.90
17170;DHT22;8700;48.222;16.342;2023-04-15T11:55:02;10.40;99.90
17170;DHT22;8700;48.222;16.342;2023-04-15T11:58:24;10.10;99.90
17170;DHT22;8700;48.222;16.342;2023-04-15T12:01:46;9.70;99.90
17170;DHT22;8700;48.222;16.342;2023-04-15T12:05:09;9.60;99.90
17170;DHT22;8700;48.222;16.342;2023-04-15T12:09:02;9.90;99.90
17170;DHT22;8700;48.222;16.342;2023-04-15T12:12:26;10.10;99.90
17170;DHT22;8700;48.222;16.342;2023-04-15T12:15:48;10.30;99.90
17170;DHT22;8700;48.222;16.342;2023-04-15T12:19:11;10.50;99.90
17170;DHT22;8700;48.222;16.342;2023-04-15T12:22:36;10.50;99.90
17170;DHT22;8700;48.222;16.342;2023-04-15T12:26:04;10.50;99.90
17170;DHT22;8700;48.222;16.342;2023-04-15T12:29:26;10.60;99.90
17170;DHT22;8700;48.222;16.342;2023-04-15T12:32:48;10.20;99.90
17170;DHT22;8700;48.222;16.342;2023-04-15T12:36:09;10.40;99.90
17170;DHT22;8700;48.222;16.342;2023-04-15T12:39:33;10.70;99.90
17170;DHT22;8700;48.222;16.342;2023-04-15T12:42:56;10.50;99.90
17170;DHT22;8700;48.222;16.342;2023-04-15T12:46:18;10.40;99.90
17170;DHT22;8700;48.222;16.342;2023-04-15T12:49:39;10.30;99.90
17170;DHT22;8700;48.222;16.342;2023-04-15T12:53:02;10.30;99.90
17170;DHT22;8700;48.222;16.342;2023-04-15T12:56:23;10.20;99.90
17170;DHT22;8700;48.222;16.342;2023-04-15T12:59:46;10.50;99.90
17170;DHT22;8700;48.222;16.342;2023-04-15T13:03:07;10.80;99.90
17170;DHT22;8700;48.222;16.342;2023-04-15T13:06:28;11.30;99.90
17170;DHT22;8700;48.222;16.342;2023-04-15T13:09:51;11.50;99.90
17170;DHT22;8700;48.222;16.342;2023-04-15T13:13:13;11.80;99.90
17170;DHT22;8700;48.222;16.342;2023-04-15T13:16:35;12.10;99.90
17170;DHT22;8700;48.222;16.342;2023-04-15T13:19:57;12.20;99.90
17170;DHT22;8700;48.222;16.342;2023-04-15T13:23:20;12.40;99.90
17170;DHT22;8700;48.222;16.342;2023-04-15T13:26:42;12.70;99.90
17170;DHT22;8700;48.222;16.342;2023-04-15T13:30:04;12.50;99.90
17170;DHT22;8700;48.222;16.342;2023-04-15T13:33:26;12.00;99.90
17170;DHT22;8700;48.222;16.342;2023-04-15T13:36:48;11.40;99.90
17170;DHT22;8700;48.222;16.342;2023-04-15T13:40:10;11.80;99.90
17170;DHT22;8700;48.222;16.342;2023-04-15T13:43:31;11.70;99.90
17170;DHT22;8700;48.222;16.342;2023-04-15T13:46:53;11.90;99.90
17170;DHT22;8700;48.222;16.342;2023-04-15T13:50:15;11.90;99.90
17170;DHT22;8700;48.222;16.342;2023-04-15T13:53:37;10.90;99.90
17170;DHT22;8700;48.222;16.342;2023-04-15T13:56:58;10.60;99.90
17170;DHT22;8700;48.222;16.342;2023-04-15T14:00:21;10.90;99.90
17170;DHT22;8700;48.222;16.342;2023-04-15T14:03:42;11.20;99.90
17170;DHT22;8700;48.222;16.342;2023-04-15T14:07:05;11.60;99.90
17170;DHT22;8700;48.222;16.342;2023-04-15T14:10:26;11.40;99.90
17170;DHT22;8700;48.222;16.342;2023-04-15T14:13:47;11.50;99.90
17170;DHT22;8700;48.222;16.342;2023-04-15T14:17:08;11.70;99.90
17170;DHT22;8700;48.222;16.342;2023-04-15T14:20:30;11.90;99.90
17170;DHT22;8700;48.222;16.342;2023-04-15T14:23:52;11.70;99.90
17170;DHT22;8700;48.222;16.342;2023-04-15T14:27:13;11.90;99.90
17170;DHT22;8700;48.222;16.342;2023-04-15T14:30:35;12.40;99.90
17170;DHT22;8700;48.222;16.342;2023-04-15T14:33:56;12.20;99.90
17170;DHT22;8700;48.222;16.342;2023-04-15T14:37:17;12.40;99.90
17170;DHT22;8700;48.222;16.342;2023-04-15T14:40:41;12.40;99.90
17170;DHT22;8700;48.222;16.342;2023-04-15T14:44:02;12.40;99.90
17170;DHT22;8700;48.222;16.342;2023-04-15T14:47:25;12.00;99.90
17170;DHT22;8700;48.222;16.342;2023-04-15T14:50:46;12.20;99.90
17170;DHT22;8700;48.222;16.342;2023-04-15T14:54:08;12.00;99.90
17170;DHT22;8700;48.222;16.342;2023-04-15T14:57:30;11.20;99.90
17170;DHT22;8700;48.222;16.342;2023-04-15T15:00:52;11.10;99.90
17170;DHT22;8700;48.222;16.342;2023-04-15T15:04:13;11.10;99.90
17170;DHT22;8700;48.222;16.342;2023-04-15T15:07:34;10.90;99.90
17170;DHT22;8700;48.222;16.342;2023-04-15T15:10:55;10.90;99.90
17170;DHT22;8700;48.222;16.342;2023-04-15T15:14:18;11.40;99.90
17170;DHT22;8700;48.222;16.342;2023-04-15T15:17:40;11.30;99.90
17170;DHT22;8700;48.222;16.342;2023-04-15T15:21:02;11.40;99.90
17170;DHT22;8700;48.222;16.342;2023-04-15T15:24:23;11.20;99.90
17170;DHT22;8700;48.222;16.342;2023-04-15T15:27:44;11.00;99.90
17170;DHT22;8700;48.222;16.342;2023-04-15T15:31:07;11.20;99.90
17170;DHT22;8700;48.222;16.342;2023-04-15T15:34:28;11.30;99.90
17170;DHT22;8700;48.222;16.342;2023-04-15T15:37:50;11.40;99.90
17170;DHT22;8700;48.222;16.342;2023-04-15T15:41:11;11.30;99.90
17170;DHT22;8700;48.222;16.342;2023-04-15T15:44:34;11.20;99.90
17170;DHT22;8700;48.222;16.342;2023-04-15T15:47:59;10.90;99.90
17170;DHT22;8700;48.222;16.342;2023-04-15T15:51:20;10.90;99.90
17170;DHT22;8700;48.222;16.342;2023-04-15T15:54:42;11.00;99.90
17170;DHT22;8700;48.222;16.342;2023-04-15T15:58:03;11.40;99.90
17170;DHT22;8700;48.222;16.342;2023-04-15T16:01:24;11.50;99.90
17170;DHT22;8700;48.222;16.342;2023-04-15T16:04:47;11.20;99.90
17170;DHT22;8700;48.222;16.342;2023-04-15T16:08:09;11.10;99.90
17170;DHT22;8700;48.222;16.342;2023-04-15T16:11:30;11.20;99.90
17170;DHT22;8700;48.222;16.342;2023-04-15T16:14:51;10.80;99.90
17170;DHT22;8700;48.222;16.342;2023-04-15T16:18:12;10.70;99.90
17170;DHT22;8700;48.222;16.342;2023-04-15T16:21:36;10.40;99.90
17170;DHT22;8700;48.222;16.342;2023-04-15T16:24:57;10.50;99.90
17170;DHT22;8700;48.222;16.342;2023-04-15T16:28:19;10.50;99.90
17170;DHT22;8700;48.222;16.342;2023-04-15T16:31:40;10.20;99.90
17170;DHT22;8700;48.222;16.342;2023-04-15T16:35:02;10.00;99.90
17170;DHT22;8700;48.222;16.342;2023-04-15T16:38:24;10.00;99.90
17170;DHT22;8700;48.222;16.342;2023-04-15T16:41:46;9.60;99.90
17170;DHT22;8700;48.222;16.342;2023-04-15T16:45:07;9.50;99.90
17170;DHT22;8700;48.222;16.342;2023-04-15T16:48:30;9.60;99.90
17170;DHT22;8700;48.222;16.342;2023-04-15T16:51:51;9.70;99.90
17170;DHT22;8700;48.222;16.342;2023-04-15T16:55:16;9.70;99.90
17170;DHT22;8700;48.222;16.342;2023-04-15T16:58:37;10.00;99.90
17170;DHT22;8700;48.222;16.342;2023-04-15T17:01:58;10.10;99.90
17170;DHT22;8700;48.222;16.342;2023-04-15T17:05:19;10.40;99.90
17170;DHT22;8700;48.222;16.342;2023-04-15T17:08:41;10.30;99.90
17170;DHT22;8700;48.222;16.342;2023-04-15T17:12:04;10.10;99.90
17170;DHT22;8700;48.222;16.342;2023-04-15T17:15:26;10.20;99.90
17170;DHT22;8700;48.222;16.342;2023-04-15T17:18:47;10.10;99.90
17170;DHT22;8700;48.222;16.342;2023-04-15T17:22:09;10.10;99.90
17170;DHT22;8700;48.222;16.342;2023-04-15T17:25:30;9.80;99.90
17170;DHT22;8700;48.222;16.342;2023-04-15T17:28:53;9.90;99.90
17170;DHT22;8700;48.222;16.342;2023-04-15T17:32:14;9.90;99.90
17170;DHT22;8700;48.222;16.342;2023-04-15T17:35:36;9.90;99.90
17170;DHT22;8700;48.222;16.342;2023-04-15T17:39:00;9.60;99.90
17170;DHT22;8700;48.222;16.342;2023-04-15T17:42:24;9.60;99.90
17170;DHT22;8700;48.222;16.342;2023-04-15T17:45:46;9.50;99.90
17170;DHT22;8700;48.222;16.342;2023-04-15T17:49:08;9.40;99.90
17170;DHT22;8700;48.222;16.342;2023-04-15T17:52:29;9.50;99.90
17170;DHT22;8700;48.222;16.342;2023-04-15T17:55:51;9.50;99.90
17170;DHT22;8700;48.222;16.342;2023-04-15T17:59:12;9.50;99.90
17170;DHT22;8700;48.222;16.342;2023-04-15T18:02:35;9.60;99.90
17170;DHT22;8700;48.222;16.342;2023-04-15T18:05:57;9.50;99.90
17170;DHT22;8700;48.222;16.342;2023-04-15T18:09:19;9.30;99.90
17170;DHT22;8700;48.222;16.342;2023-04-15T18:12:41;9.30;99.90
17170;DHT22;8700;48.222;16.342;2023-04-15T18:16:02;9.30;99.90
17170;DHT22;8700;48.222;16.342;2023-04-15T18:19:26;9.10;99.90
17170;DHT22;8700;48.222;16.342;2023-04-15T18:22:48;9.30;99.90
17170;DHT22;8700;48.222;16.342;2023-04-15T18:26:10;9.40;99.90
17170;DHT22;8700;48.222;16.342;2023-04-15T18:29:33;9.30;99.90
17170;DHT22;8700;48.222;16.342;2023-04-15T18:32:54;9.40;99.90
17170;DHT22;8700;48.222;16.342;2023-04-15T18:36:18;9.40;99.90
17170;DHT22;8700;48.222;16.342;2023-04-15T18:39:45;9.30;99.90
17170;DHT22;8700;48.222;16.342;2023-04-15T18:43:13;9.30;99.90
17170;DHT22;8700;48.222;16.342;2023-04-15T18:46:39;9.20;99.90
17170;DHT22;8700;48.222;16.342;2023-04-15T18:50:01;9.10;99.90
17170;DHT22;8700;48.222;16.342;2023-04-15T18:53:24;9.10;99.90
17170;DHT22;8700;48.222;16.342;2023-04-15T18:56:47;9.10;99.90
17170;DHT22;8700;48.222;16.342;2023-04-15T19:00:09;9.10;99.90
17170;DHT22;8700;48.222;16.342;2023-04-15T19:03:31;9.00;99.90
17170;DHT22;8700;48.222;16.342;2023-04-15T19:06:52;8.90;99.90
17170;DHT22;8700;48.222;16.342;2023-04-15T19:10:15;8.70;99.90
17170;DHT22;8700;48.222;16.342;2023-04-15T19:13:36;8.80;99.90
17170;DHT22;8700;48.222;16.342;2023-04-15T19:16:58;8.80;99.90
17170;DHT22;8700;48.222;16.342;2023-04-15T19:20:19;8.70;99.90
17170;DHT22;8700;48.222;16.342;2023-04-15T19:23:41;8.60;99.90
17170;DHT22;8700;48.222;16.342;2023-04-15T19:27:04;8.40;99.90
17170;DHT22;8700;48.222;16.342;2023-04-15T19:30:25;8.40;99.90
17170;DHT22;8700;48.222;16.342;2023-04-15T19:33:47;8.30;99.90
17170;DHT22;8700;48.222;16.342;2023-04-15T19:37:09;8.30;99.90
17170;DHT22;8700;48.222;16.342;2023-04-15T19:40:30;8.30;99.90
17170;DHT22;8700;48.222;16.342;2023-04-15T19:43:53;8.30;99.90
17170;DHT22;8700;48.222;16.342;2023-04-15T19:47:15;8.40;99.90
17170;DHT22;8700;48.222;16.342;2023-04-15T19:50:36;8.50;99.90
17170;DHT22;8700;48.222;16.342;2023-04-15T19:53:58;8.40;99.90
17170;DHT22;8700;48.222;16.342;2023-04-15T19:57:19;8.40;99.90
17170;DHT22;8700;48.222;16.342;2023-04-15T20:00:42;8.40;99.90
17170;DHT22;8700;48.222;16.342;2023-04-15T20:04:04;8.40;99.90
17170;DHT22;8700;48.222;16.342;2023-04-15T20:07:25;8.50;99.90
17170;DHT22;8700;48.222;16.342;2023-04-15T20:10:46;8.50;99.90
17170;DHT22;8700;48.222;16.342;2023-04-15T20:14:09;8.60;99.90
17170;DHT22;8700;48.222;16.342;2023-04-15T20:17:33;8.50;99.90
17170;DHT22;8700;48.222;16.342;2023-04-15T20:20:54;8.50;99.90
17170;DHT22;8700;48.222;16.342;2023-04-15T20:24:15;8.50;99.90
17170;DHT22;8700;48.222;16.342;2023-04-15T20:27:36;8.60;99.90
17170;DHT22;8700;48.222;16.342;2023-04-15T20:30:59;8.50;99.90
17170;DHT22;8700;48.222;16.342;2023-04-15T20:34:21;8.60;99.90
17170;DHT22;8700;48.222;16.342;2023-04-15T20:37:43;8.70;99.90
17170;DHT22;8700;48.222;16.342;2023-04-15T20:41:04;8.80;99.90
17170;DHT22;8700;48.222;16.342;2023-04-15T20:44:25;8.80;99.90
17170;DHT22;8700;48.222;16.342;2023-04-15T20:47:47;8.90;99.90
17170;DHT22;8700;48.222;16.342;2023-04-15T20:51:09;8.90;99.90
17170;DHT22;8700;48.222;16.342;2023-04-15T20:54:30;8.90;99.90
17170;DHT22;8700;48.222;16.342;2023-04-15T20:57:52;8.90;99.90
17170;DHT22;8700;48.222;16.342;2023-04-15T21:01:13;9.00;99.90
17170;DHT22;8700;48.222;16.342;2023-04-15T21:04:34;9.10;99.90
17170;DHT22;8700;48.222;16.342;2023-04-15T21:07:58;9.10;99.90
17170;DHT22;8700;48.222;16.342;2023-04-15T21:11:19;9.20;99.90
17170;DHT22;8700;48.222;16.342;2023-04-15T21:14:40;9.30;99.90
17170;DHT22;8700;48.222;16.342;2023-04-15T21:18:02;9.30;99.90
17170;DHT22;8700;48.222;16.342;2023-04-15T21:21:23;9.30;99.90
17170;DHT22;8700;48.222;16.342;2023-04-15T21:24:47;9.10;99.90
17170;DHT22;8700;48.222;16.342;2023-04-15T21:28:08;9.10;99.90
17170;DHT22;8700;48.222;16.342;2023-04-15T21:31:30;9.10;99.90